Springfield, WI (53176)

1:55 PM CST on December 06, 2016 (GMT -0600)
Studio Winery on the Fashionable Upper East Side | | Change Station

Elev 866 ft 42.60 °N, 88.43 °W | Updated 16 seconds ago

Overcast
Overcast
34.2 °F
Feels Like 34 °F
N
3.0
Wind Variable Wind from WSW

Today
High -- | Low -- °F
--% Chance of Precip.
Yesterday
High -- | Low -- °F
Precip. -- in
Pressure 29.75 in
Visibility 1.8 miles
Clouds Overcast 800 ft
Windchill 34 °F
Dew Point 33 °F
Humidity 98%
Rainfall 0.09 in
Snow Depth Not available.
7:09 AM 4:20 PM
Waxing Crescent, 44% visible
METAR KBUU 061935Z AUTO 26003KT 1 3/4SM BR OVC008 01/00 A2975 RMK AO2 T00080001
Pressure 29.75 in
Visibility 1.8 miles
Clouds Overcast 800 ft
Windchill 34 °F
Dew Point 33 °F
Humidity 98%
Rainfall 0.09 in
Snow Depth Not available.
7:09 AM 4:20 PM
Waxing Crescent, 44% visible
METAR KBUU 061935Z AUTO 26003KT 1 3/4SM BR OVC008 01/00 A2975 RMK AO2 T00080001

10-Day Weather Forecast

Almanac

Astronomy

Dec. 06, 2016 Rise Set
Actual Time
Civil Twilight
Nautical Twilight
Astronomical Twilight
Moon
Length of Visible Light
Length of Day
Tomorrow will be .
, % of the Moon is Illuminated

Today's Extremes

State Highs State Lows

Community

WunderPhotos

Upload Photos

1,956,020 photos uploaded!

WunderBlog® & News

Nearby

Air Quality

  Air Quality AQ Index Pollutant
Not available.

Snow Depth

Station Depth Elevation

Earthquake Activity

City Distance Mag. Time & Date
Minimum magnitude displayed is 2.5.

Coastal Water Temperatures

Place Temperature

Stations

Nearby Weather Stations

Station Location Temp. Windchill Dew Point Humidity Wind Precip. Elev Updated Type
                   

Watches & Warnings

There are currently no watches in effect.